createdAt,value
2022-11-04T00:00:29.877Z,79.02
2022-11-04T00:02:57.864Z,78.29
2022-11-04T00:05:25.288Z,78.75
2022-11-04T00:08:10.359Z,77.72
2022-11-04T00:11:02.150Z,79.89
2022-11-04T00:13:30.336Z,78.73
2022-11-04T00:16:19.578Z,78.04
2022-11-04T00:18:46.992Z,79.44
2022-11-04T00:21:32.166Z,78.90
2022-11-04T00:24:17.476Z,79.40
2022-11-04T00:27:03.951Z,79.32
2022-11-04T00:29:31.542Z,78.55
2022-11-04T00:32:16.617Z,78.86
2022-11-04T00:34:44.053Z,79.81
2022-11-04T00:37:11.720Z,80.47
2022-11-04T00:39:39.295Z,80.11
2022-11-04T00:42:08.150Z,80.63
2022-11-04T00:44:35.585Z,80.98
2022-11-04T00:47:02.998Z,79.62
2022-11-04T00:49:30.822Z,80.30
2022-11-04T00:51:58.204Z,79.47
2022-11-04T00:54:25.637Z,80.00
2022-11-04T00:56:53.985Z,81.28
2022-11-04T00:59:22.746Z,79.65
2022-11-04T01:01:50.258Z,80.02
2022-11-04T01:04:17.934Z,80.66
2022-11-04T01:06:45.725Z,80.76
2022-11-04T01:09:13.979Z,81.06
2022-11-04T01:11:41.452Z,80.93
2022-11-04T01:14:08.942Z,81.78
2022-11-04T01:16:37.734Z,81.60
2022-11-04T01:19:05.631Z,82.19
2022-11-04T01:21:33.184Z,82.16
2022-11-04T01:24:01.386Z,83.72
2022-11-04T01:26:29.845Z,82.54
2022-11-04T01:28:58.862Z,82.60
2022-11-04T01:31:28.020Z,82.35
2022-11-04T01:33:57.828Z,83.34
2022-11-04T01:36:25.469Z,81.30
2022-11-04T01:38:53.355Z,81.64
2022-11-04T01:41:23.162Z,81.21
2022-11-04T01:43:52.528Z,81.02
2022-11-04T01:46:32.166Z,80.45
2022-11-04T01:49:09.829Z,80.92
2022-11-04T01:51:41.247Z,80.67
2022-11-04T01:54:10.636Z,79.66
2022-11-04T01:56:39.858Z,81.39
2022-11-04T01:59:12.539Z,81.65
2022-11-04T02:01:40.204Z,82.75
2022-11-04T02:04:29.987Z,81.63
2022-11-04T02:07:00.189Z,81.51
2022-11-04T02:09:30.056Z,80.22
2022-11-04T02:12:15.426Z,81.86
2022-11-04T02:14:44.024Z,81.94
2022-11-04T02:17:25.200Z,82.13
2022-11-04T02:20:30.877Z,81.84
2022-11-04T02:23:28.448Z,82.75
2022-11-04T02:26:24.152Z,82.57
2022-11-04T02:29:09.795Z,82.93
2022-11-04T02:31:45.911Z,82.26
2022-11-04T02:34:20.924Z,82.00
2022-11-04T02:36:58.346Z,82.39
2022-11-04T02:39:36.054Z,82.78
2022-11-04T02:42:12.151Z,82.11
2022-11-04T02:44:50.653Z,81.25
2022-11-04T02:47:23.079Z,82.31
2022-11-04T02:49:55.779Z,81.81
2022-11-04T02:52:28.779Z,84.83
2022-11-04T02:55:01.908Z,83.93
2022-11-04T02:57:32.486Z,81.68
2022-11-04T03:00:03.651Z,84.60
2022-11-04T03:02:35.632Z,83.75
2022-11-04T03:05:08.279Z,83.63
2022-11-04T03:07:39.104Z,84.17
2022-11-04T03:10:14.041Z,84.03
2022-11-04T03:12:48.641Z,83.65
2022-11-04T03:15:23.827Z,82.50
2022-11-04T03:18:04.097Z,85.72
2022-11-04T03:20:32.503Z,84.01
2022-11-04T03:23:00.863Z,83.75
2022-11-04T03:25:33.110Z,82.98
2022-11-04T03:28:06.302Z,84.68
2022-11-04T03:30:40.954Z,86.58
2022-11-04T03:33:16.514Z,85.78
2022-11-04T03:35:43.950Z,87.22
2022-11-04T03:38:11.673Z,86.89
2022-11-04T03:40:39.172Z,84.99
2022-11-04T03:43:11.955Z,83.93
2022-11-04T03:45:42.946Z,83.75
2022-11-04T03:48:10.869Z,83.94
2022-11-04T03:50:42.908Z,81.96
2022-11-04T03:53:12.592Z,85.17
2022-11-04T03:55:52.883Z,82.66
2022-11-04T03:58:31.917Z,82.37
2022-11-04T04:01:06.125Z,83.47
2022-11-04T04:03:41.449Z,83.63
2022-11-04T04:06:14.083Z,83.72
2022-11-04T04:08:47.457Z,84.47
2022-11-04T04:11:21.936Z,82.96
2022-11-04T04:13:57.867Z,83.29
2022-11-04T04:16:33.435Z,83.31
2022-11-04T04:19:05.355Z,82.68
2022-11-04T04:21:38.568Z,82.09
2022-11-04T04:24:27.898Z,82.83
2022-11-04T04:27:14.592Z,82.85
2022-11-04T04:29:44.766Z,82.66
2022-11-04T04:32:15.045Z,83.61
2022-11-04T04:34:42.699Z,82.87
2022-11-04T04:37:15.016Z,82.53
2022-11-04T04:40:11.487Z,82.46
2022-11-04T04:42:57.340Z,82.34
2022-11-04T04:45:30.031Z,83.74
2022-11-04T04:47:59.132Z,82.00
2022-11-04T04:50:29.934Z,82.46
2022-11-04T04:52:58.885Z,82.65
2022-11-04T04:55:26.466Z,82.74
2022-11-04T04:57:53.899Z,82.17
2022-11-04T05:00:21.921Z,81.61
2022-11-04T05:02:50.007Z,82.51
2022-11-04T05:05:19.680Z,82.74
2022-11-04T05:07:47.577Z,82.66
2022-11-04T05:10:16.063Z,82.51
2022-11-04T05:13:01.667Z,81.64
2022-11-04T05:15:31.019Z,83.56
2022-11-04T05:18:00.246Z,82.94
2022-11-04T05:20:30.245Z,82.83
2022-11-04T05:22:57.733Z,82.64
2022-11-04T05:25:25.121Z,82.74
2022-11-04T05:27:52.578Z,81.60
2022-11-04T05:30:20.034Z,81.58
2022-11-04T05:32:47.473Z,82.25
2022-11-04T05:35:15.038Z,82.71
2022-11-04T05:37:43.782Z,81.42
2022-11-04T05:40:12.478Z,82.77
2022-11-04T05:42:39.874Z,82.93
2022-11-04T05:45:08.238Z,82.97
2022-11-04T05:47:35.630Z,83.59
2022-11-04T05:50:03.006Z,83.28
2022-11-04T05:52:30.438Z,84.21
2022-11-04T05:54:59.224Z,83.78
2022-11-04T05:57:26.694Z,83.32
2022-11-04T05:59:54.089Z,84.43
2022-11-04T06:02:21.549Z,84.10
2022-11-04T06:04:49.163Z,88.96
2022-11-04T06:07:16.563Z,86.29
2022-11-04T06:09:43.956Z,85.21
2022-11-04T06:12:15.311Z,84.97
2022-11-04T06:14:43.136Z,84.24
2022-11-04T06:17:14.912Z,87.83
2022-11-04T06:19:42.298Z,86.43
2022-11-04T06:22:10.359Z,86.28
2022-11-04T06:24:37.759Z,84.87
2022-11-04T06:27:05.336Z,84.70
2022-11-04T06:29:34.358Z,86.06
2022-11-04T06:32:01.730Z,85.17
2022-11-04T06:34:29.127Z,86.74
2022-11-04T06:36:56.600Z,84.98
2022-11-04T06:39:23.998Z,85.91
2022-11-04T06:41:51.886Z,87.01
2022-11-04T06:44:20.428Z,87.06
2022-11-04T06:46:49.174Z,87.24
2022-11-04T06:49:18.794Z,87.84
2022-11-04T06:51:46.324Z,86.84
2022-11-04T06:54:14.305Z,86.71
2022-11-04T06:56:42.013Z,87.08
2022-11-04T06:59:13.643Z,86.79
2022-11-04T07:01:41.190Z,85.89
2022-11-04T07:04:10.653Z,85.66
2022-11-04T07:06:39.819Z,88.47
2022-11-04T07:09:12.689Z,87.09
2022-11-04T07:11:40.800Z,85.50
2022-11-04T07:14:08.832Z,88.52
2022-11-04T07:16:36.267Z,88.40
2022-11-04T07:19:04.111Z,87.66
2022-11-04T07:21:33.155Z,87.67
2022-11-04T07:24:01.757Z,87.45
2022-11-04T07:26:29.177Z,87.29
2022-11-04T07:28:56.591Z,87.59
2022-11-04T07:31:24.355Z,88.22
2022-11-04T07:33:51.743Z,89.35
2022-11-04T07:36:20.063Z,89.13
2022-11-04T07:38:49.252Z,89.91
2022-11-04T07:41:18.116Z,88.82
2022-11-04T07:43:49.580Z,89.00
2022-11-04T07:46:17.165Z,88.97
2022-11-04T07:48:44.627Z,88.79
2022-11-04T07:51:14.841Z,88.92
2022-11-04T07:53:42.528Z,89.23
2022-11-04T07:56:12.865Z,88.55
2022-11-04T07:58:41.045Z,89.03
2022-11-04T08:01:10.463Z,88.97
2022-11-04T08:03:38.362Z,88.42
2022-11-04T08:06:08.692Z,88.37
2022-11-04T08:08:37.365Z,87.74
2022-11-04T08:11:08.742Z,88.59
2022-11-04T08:13:39.763Z,89.47
2022-11-04T08:16:12.389Z,88.79
2022-11-04T08:18:40.725Z,89.30
2022-11-04T08:21:08.850Z,89.73
2022-11-04T08:23:36.455Z,88.64
2022-11-04T08:26:09.055Z,89.46
2022-11-04T08:28:36.519Z,88.91
2022-11-04T08:31:07.835Z,90.47
2022-11-04T08:33:36.278Z,92.72
2022-11-04T08:36:06.232Z,97.30
2022-11-04T08:38:34.409Z,94.26
2022-11-04T08:41:03.788Z,93.74
2022-11-04T08:43:32.482Z,90.82
2022-11-04T08:45:59.936Z,91.91
2022-11-04T08:48:28.741Z,90.17
2022-11-04T08:50:58.871Z,86.33
2022-11-04T08:53:27.216Z,88.05
2022-11-04T08:55:55.053Z,86.99
2022-11-04T08:58:24.812Z,86.90
2022-11-04T09:00:52.604Z,87.84
2022-11-04T09:03:20.231Z,87.43
2022-11-04T09:05:49.224Z,88.50
2022-11-04T09:08:18.458Z,88.31
2022-11-04T09:10:47.833Z,89.33
2022-11-04T09:13:16.662Z,89.31
2022-11-04T09:15:44.298Z,92.57
2022-11-04T09:18:12.150Z,93.96
2022-11-04T09:20:39.690Z,93.40
2022-11-04T09:23:09.155Z,90.64
2022-11-04T09:25:37.777Z,94.18
2022-11-04T09:28:05.682Z,94.81
2022-11-04T09:30:33.190Z,94.89
2022-11-04T09:33:00.916Z,95.63
2022-11-04T09:35:28.420Z,93.22
2022-11-04T09:37:56.240Z,92.97
2022-11-04T09:40:26.339Z,95.57
2022-11-04T09:43:07.891Z,94.38
2022-11-04T09:45:40.050Z,95.38
2022-11-04T09:48:12.378Z,94.41
2022-11-04T09:50:46.379Z,94.76
2022-11-04T09:53:18.644Z,92.72
2022-11-04T09:55:53.756Z,94.29
2022-11-04T09:58:21.243Z,95.13
2022-11-04T10:00:58.317Z,97.04
2022-11-04T10:03:42.774Z,97.52
2022-11-04T10:06:26.139Z,95.20
2022-11-04T10:09:06.362Z,92.79
2022-11-04T10:11:43.958Z,90.36
2022-11-04T10:14:26.006Z,89.38
2022-11-04T10:17:07.342Z,90.53
2022-11-04T10:19:45.929Z,92.92
2022-11-04T10:22:23.241Z,94.59
2022-11-04T10:25:02.729Z,95.22
2022-11-04T10:27:36.063Z,96.31
2022-11-04T10:30:08.179Z,93.90
2022-11-04T10:32:40.435Z,91.75
2022-11-04T10:35:20.651Z,89.86
2022-11-04T10:37:53.167Z,88.08
2022-11-04T10:40:25.855Z,87.72
2022-11-04T10:42:55.479Z,88.56
2022-11-04T10:45:30.178Z,87.15
2022-11-04T10:48:02.398Z,88.59
2022-11-04T10:50:37.521Z,88.36
2022-11-04T10:53:14.046Z,90.87
2022-11-04T10:55:47.924Z,91.62
2022-11-04T10:58:22.331Z,93.34
2022-11-04T11:00:50.180Z,94.92
2022-11-04T11:03:30.756Z,93.30
2022-11-04T11:06:14.510Z,91.65
2022-11-04T11:08:43.227Z,89.54
2022-11-04T11:11:11.096Z,89.40
2022-11-04T11:13:41.785Z,88.22
2022-11-04T11:16:13.208Z,89.36
2022-11-04T11:18:42.006Z,88.45
2022-11-04T11:21:13.555Z,88.23
2022-11-04T11:23:43.798Z,88.99
2022-11-04T11:26:15.252Z,86.81
2022-11-04T11:28:54.414Z,86.66
2022-11-04T11:31:26.739Z,84.85
2022-11-04T11:33:58.496Z,86.59
2022-11-04T11:36:27.838Z,85.22
2022-11-04T11:39:01.088Z,84.45
2022-11-04T11:41:32.231Z,87.29
2022-11-04T11:44:05.546Z,85.05
2022-11-04T11:46:35.119Z,86.03
2022-11-04T11:49:05.021Z,86.76
2022-11-04T11:51:35.217Z,87.79
2022-11-04T11:54:15.606Z,87.30
2022-11-04T11:57:12.059Z,87.45
2022-11-04T12:02:41.700Z,86.41
2022-11-04T12:11:07.963Z,87.21
2022-11-04T12:13:40.482Z,86.92
2022-11-04T12:16:22.289Z,86.92
2022-11-04T12:19:11.831Z,88.01
2022-11-04T12:21:45.544Z,91.24
2022-11-04T12:24:27.523Z,89.75
2022-11-04T12:27:03.666Z,89.33
2022-11-04T12:29:47.092Z,88.09
2022-11-04T12:32:28.644Z,90.89
2022-11-04T12:35:12.490Z,88.52
2022-11-04T12:37:53.126Z,88.63
2022-11-04T12:40:22.997Z,89.06
2022-11-04T12:43:13.302Z,89.06
2022-11-04T12:45:54.141Z,89.96
2022-11-04T12:48:40.551Z,86.89
2022-11-04T12:51:16.967Z,85.95
2022-11-04T12:54:02.893Z,84.16
2022-11-04T12:56:38.215Z,85.46
2022-11-04T12:59:31.370Z,84.78
2022-11-04T13:02:03.856Z,85.63
2022-11-04T13:04:38.338Z,86.96
2022-11-04T13:07:11.267Z,87.70
2022-11-04T13:09:43.334Z,86.94
2022-11-04T13:12:14.838Z,86.50
2022-11-04T13:14:48.104Z,88.04
2022-11-04T13:17:20.386Z,86.93
2022-11-04T13:19:52.185Z,85.82
2022-11-04T13:22:23.030Z,86.62
2022-11-04T13:24:56.383Z,87.75
2022-11-04T13:27:27.312Z,85.86
2022-11-04T13:30:06.486Z,87.62
2022-11-04T13:32:41.730Z,87.77
2022-11-04T13:35:20.209Z,86.62
2022-11-04T13:37:56.715Z,86.11
2022-11-04T13:40:28.982Z,86.60
2022-11-04T13:43:26.694Z,86.51
2022-11-04T13:45:56.933Z,87.40
2022-11-04T13:48:28.354Z,87.84
2022-11-04T13:51:00.949Z,86.54
2022-11-04T13:53:47.898Z,87.74
2022-11-04T13:56:35.212Z,86.79
2022-11-04T13:59:19.697Z,86.50
2022-11-04T14:01:47.589Z,86.39
2022-11-04T14:04:30.483Z,88.67
2022-11-04T14:07:01.728Z,87.34
2022-11-04T14:09:36.798Z,86.60
2022-11-04T14:12:30.502Z,86.88
2022-11-04T14:15:10.843Z,87.26
2022-11-04T14:18:03.552Z,86.14
2022-11-04T14:20:34.207Z,86.50
2022-11-04T14:23:04.760Z,86.58
2022-11-04T14:25:35.772Z,87.23
2022-11-04T14:28:17.112Z,85.82
2022-11-04T14:30:49.291Z,85.52
2022-11-04T14:33:30.170Z,86.58
2022-11-04T14:36:14.225Z,86.62
2022-11-04T14:38:44.211Z,86.07
2022-11-04T14:41:22.494Z,89.05
2022-11-04T14:43:50.635Z,88.20
2022-11-04T14:46:24.262Z,86.92
2022-11-04T14:48:55.741Z,88.71
2022-11-04T14:51:28.852Z,87.89
2022-11-04T14:54:06.097Z,87.33
2022-11-04T14:56:33.894Z,86.75
2022-11-04T14:59:05.364Z,86.34
2022-11-04T15:01:35.907Z,86.92
2022-11-04T15:04:12.253Z,86.99
2022-11-04T15:06:54.024Z,87.25
2022-11-04T15:09:25.776Z,87.19
2022-11-04T15:12:16.971Z,87.43
2022-11-04T15:14:44.345Z,88.36
2022-11-04T15:17:18.854Z,90.24
2022-11-04T15:19:49.997Z,89.64
2022-11-04T15:22:17.424Z,88.22
2022-11-04T15:24:46.346Z,87.84
2022-11-04T15:27:17.458Z,87.70
2022-11-04T15:29:54.974Z,86.98
2022-11-04T15:32:26.406Z,89.07
2022-11-04T15:34:54.987Z,87.79
2022-11-04T15:37:24.255Z,86.71
2022-11-04T15:39:56.071Z,87.40
2022-11-04T15:42:40.471Z,87.53
2022-11-04T15:45:39.687Z,87.48
2022-11-04T15:48:29.752Z,89.77
2022-11-04T15:51:14.935Z,86.94
2022-11-04T15:53:51.557Z,88.48
2022-11-04T15:56:23.023Z,88.31
2022-11-04T15:58:51.880Z,87.41
2022-11-04T16:01:20.799Z,87.61
2022-11-04T16:03:54.261Z,87.99
2022-11-04T16:06:34.820Z,88.54
2022-11-04T16:09:05.387Z,87.09
2022-11-04T16:11:34.271Z,86.30
2022-11-04T16:14:23.210Z,87.30
2022-11-04T16:16:53.331Z,86.46
2022-11-04T16:19:23.581Z,87.15
2022-11-04T16:22:00.356Z,87.48
2022-11-04T16:24:30.210Z,86.89
2022-11-04T16:26:59.342Z,87.08
2022-11-04T16:29:29.417Z,87.58
2022-11-04T16:32:16.849Z,89.09
2022-11-04T16:34:45.743Z,88.43
2022-11-04T16:37:13.652Z,87.99
2022-11-04T16:39:43.660Z,87.49
2022-11-04T16:42:13.616Z,88.20
2022-11-04T16:44:41.472Z,88.61
2022-11-04T16:47:11.457Z,87.78
2022-11-04T16:49:39.801Z,90.46
2022-11-04T16:52:14.071Z,89.17
2022-11-04T16:54:42.003Z,89.56
2022-11-04T16:57:14.117Z,86.46
2022-11-04T16:59:42.047Z,89.60
2022-11-04T17:02:26.897Z,90.29
2022-11-04T17:04:54.345Z,89.17
2022-11-04T17:07:30.523Z,89.51
2022-11-04T17:10:16.189Z,89.08
2022-11-04T17:12:45.417Z,89.84
2022-11-04T17:15:13.712Z,87.92
2022-11-04T17:17:41.869Z,89.44
2022-11-04T17:20:13.078Z,89.43
2022-11-04T17:22:40.690Z,88.49
2022-11-04T17:25:16.920Z,90.92
2022-11-04T17:27:45.784Z,92.65
2022-11-04T17:30:14.547Z,89.84
2022-11-04T17:32:42.147Z,88.52
2022-11-04T17:35:10.386Z,89.20
2022-11-04T17:37:38.222Z,91.02
2022-11-04T17:40:06.981Z,90.50
2022-11-04T17:42:52.123Z,90.78
2022-11-04T17:45:20.927Z,87.39
2022-11-04T17:47:48.510Z,88.64
2022-11-04T17:50:15.958Z,88.34
2022-11-04T17:52:44.063Z,90.54
2022-11-04T17:55:16.727Z,89.65
2022-11-04T17:57:45.436Z,91.21
2022-11-04T18:00:14.364Z,90.78
2022-11-04T18:02:43.607Z,89.53
2022-11-04T18:05:11.116Z,88.43
2022-11-04T18:07:38.604Z,87.21
2022-11-04T18:10:07.151Z,86.62
2022-11-04T18:12:41.514Z,87.89
2022-11-04T18:15:11.968Z,88.94
2022-11-04T18:17:40.245Z,88.24
2022-11-04T18:20:14.026Z,88.89
2022-11-04T18:22:41.997Z,87.78
2022-11-04T18:25:10.233Z,87.63
2022-11-04T18:27:37.729Z,88.34
2022-11-04T18:30:06.539Z,86.68
2022-11-04T18:32:34.261Z,88.60
2022-11-04T18:35:01.839Z,89.27
2022-11-04T18:37:30.559Z,91.40
2022-11-04T18:39:57.965Z,89.42
2022-11-04T18:42:25.526Z,87.67
2022-11-04T18:44:52.926Z,90.60
2022-11-04T18:47:20.398Z,90.91
2022-11-04T18:49:48.107Z,93.32
2022-11-04T18:52:15.475Z,91.39
2022-11-04T18:54:45.102Z,90.85
2022-11-04T18:57:12.864Z,89.75
2022-11-04T18:59:40.744Z,92.80
2022-11-04T19:02:16.573Z,90.16
2022-11-04T19:04:44.128Z,91.26
2022-11-04T19:07:11.597Z,90.71
2022-11-04T19:09:46.810Z,89.25
2022-11-04T19:12:33.875Z,90.33
2022-11-04T19:15:01.290Z,91.65
2022-11-04T19:17:28.723Z,90.91
2022-11-04T19:19:56.117Z,90.27
2022-11-04T19:22:23.527Z,91.39
2022-11-04T19:24:50.934Z,90.33
2022-11-04T19:27:21.606Z,89.77
2022-11-04T19:29:49.406Z,89.39
2022-11-04T19:32:16.827Z,90.01
2022-11-04T19:34:44.353Z,90.23
2022-11-04T19:37:12.358Z,89.55
2022-11-04T19:39:39.881Z,89.18
2022-11-04T19:42:24.921Z,89.28
2022-11-04T19:44:53.629Z,90.26
2022-11-04T19:47:21.018Z,90.52
2022-11-04T19:49:48.434Z,91.64
2022-11-04T19:52:15.891Z,92.37
2022-11-04T19:54:43.273Z,92.96
2022-11-04T19:57:10.637Z,92.97
2022-11-04T19:59:38.163Z,92.65
2022-11-04T20:02:07.337Z,90.59
2022-11-04T20:04:34.870Z,89.18
2022-11-04T20:07:02.601Z,91.32
2022-11-04T20:09:30.079Z,90.96
2022-11-04T20:12:14.993Z,90.48
2022-11-04T20:14:42.478Z,91.25
2022-11-04T20:17:11.259Z,91.36
2022-11-04T20:19:38.703Z,92.21
2022-11-04T20:22:06.182Z,92.56
2022-11-04T20:24:33.615Z,90.90
2022-11-04T20:27:00.993Z,88.56
2022-11-04T20:29:28.401Z,87.92
2022-11-04T20:31:55.784Z,89.42
2022-11-04T20:34:27.657Z,87.55
2022-11-04T20:37:00.381Z,91.39
2022-11-04T20:39:27.813Z,89.97
2022-11-04T20:41:55.211Z,90.12
2022-11-04T20:44:22.651Z,91.59
2022-11-04T20:46:50.050Z,89.78
2022-11-04T20:49:17.591Z,91.63
2022-11-04T20:51:54.528Z,92.67
2022-11-04T20:54:22.850Z,91.78
2022-11-04T20:56:50.347Z,89.59
2022-11-04T20:59:18.304Z,88.79
2022-11-04T21:01:48.256Z,89.97
2022-11-04T21:04:18.240Z,89.54
2022-11-04T21:06:48.577Z,90.31
2022-11-04T21:09:17.517Z,88.26
2022-11-04T21:11:44.897Z,90.25
2022-11-04T21:14:14.640Z,91.11
2022-11-04T21:16:42.694Z,88.11
2022-11-04T21:19:11.873Z,91.70
2022-11-04T21:21:42.006Z,93.08
2022-11-04T21:24:13.226Z,92.08
2022-11-04T21:26:40.878Z,91.33
2022-11-04T21:29:11.966Z,93.43
2022-11-04T21:31:39.987Z,94.08
2022-11-04T21:34:07.670Z,93.54
2022-11-04T21:36:35.670Z,91.88
2022-11-04T21:39:03.418Z,91.86
2022-11-04T21:41:37.030Z,92.79
2022-11-04T21:44:08.221Z,92.13
2022-11-04T21:46:36.406Z,92.50
2022-11-04T21:49:04.091Z,91.18
2022-11-04T21:51:34.198Z,89.55
2022-11-04T21:54:01.626Z,90.03
2022-11-04T21:56:32.931Z,89.55
2022-11-04T21:59:02.537Z,90.29
2022-11-04T22:01:31.326Z,91.27
2022-11-04T22:04:00.466Z,90.56
2022-11-04T22:06:33.555Z,92.02
2022-11-04T22:09:02.112Z,91.11
2022-11-04T22:11:31.198Z,91.89
2022-11-04T22:14:00.329Z,91.83
2022-11-04T22:16:31.239Z,90.65
2022-11-04T22:19:00.435Z,89.59
2022-11-04T22:21:32.499Z,89.31
2022-11-04T22:24:01.137Z,89.63
2022-11-04T22:26:31.422Z,90.83
2022-11-04T22:28:59.788Z,90.58
2022-11-04T22:31:31.494Z,89.15
2022-11-04T22:34:00.709Z,89.25
2022-11-04T22:36:28.702Z,89.70
2022-11-04T22:38:56.277Z,91.80
2022-11-04T22:41:25.494Z,90.92
2022-11-04T22:43:53.014Z,91.17
2022-11-04T22:46:22.781Z,90.07
2022-11-04T22:48:51.747Z,89.95
2022-11-04T22:51:19.187Z,90.00
2022-11-04T22:53:55.061Z,89.62
2022-11-04T22:56:23.619Z,90.15
2022-11-04T22:58:52.060Z,91.18
2022-11-04T23:01:22.359Z,89.85
2022-11-04T23:03:52.482Z,94.34
2022-11-04T23:06:20.649Z,94.93
2022-11-04T23:08:48.456Z,94.59
2022-11-04T23:11:36.028Z,95.48
2022-11-04T23:14:21.398Z,92.75
2022-11-04T23:17:08.624Z,94.20
2022-11-04T23:19:37.859Z,93.43
2022-11-04T23:22:22.819Z,93.52
2022-11-04T23:25:11.524Z,92.78
2022-11-04T23:28:01.192Z,91.09
2022-11-04T23:30:31.312Z,93.85
2022-11-04T23:33:00.367Z,96.14
2022-11-04T23:35:49.449Z,96.06
2022-11-04T23:38:17.643Z,96.83
2022-11-04T23:41:06.651Z,97.60
2022-11-04T23:43:34.746Z,100.00
2022-11-04T23:46:19.873Z,100.00
2022-11-04T23:49:04.908Z,99.13
2022-11-04T23:51:51.197Z,94.75
2022-11-04T23:54:36.625Z,96.90
2022-11-04T23:57:30.089Z,95.44
